createdAt,value
2022-11-01T00:02:08.699Z,5.17
2022-11-01T00:04:35.346Z,5.13
2022-11-01T00:07:02.199Z,5.10
2022-11-01T00:09:28.847Z,5.07
2022-11-01T00:11:55.382Z,5.04
2022-11-01T00:14:22.027Z,5.02
2022-11-01T00:16:49.174Z,5.04
2022-11-01T00:19:15.815Z,5.05
2022-11-01T00:21:42.561Z,5.03
2022-11-01T00:24:09.062Z,5.00
2022-11-01T00:26:35.837Z,4.97
2022-11-01T00:29:02.711Z,4.94
2022-11-01T00:31:29.240Z,4.90
2022-11-01T00:33:55.874Z,4.88
2022-11-01T00:36:22.301Z,4.86
2022-11-01T00:38:52.717Z,4.84
2022-11-01T00:41:19.939Z,4.81
2022-11-01T00:43:46.441Z,4.78
2022-11-01T00:46:13.102Z,4.73
2022-11-01T00:48:39.927Z,4.69
2022-11-01T00:51:06.777Z,4.67
2022-11-01T00:53:33.516Z,4.65
2022-11-01T00:56:01.947Z,4.65
2022-11-01T00:58:28.615Z,4.64
2022-11-01T01:00:55.464Z,4.65
2022-11-01T01:03:22.854Z,4.67
2022-11-01T01:05:51.339Z,4.68
2022-11-01T01:08:17.985Z,4.66
2022-11-01T01:10:45.338Z,4.64
2022-11-01T01:13:12.293Z,4.60
2022-11-01T01:15:39.854Z,4.56
2022-11-01T01:18:07.268Z,4.54
2022-11-01T01:20:34.060Z,4.53
2022-11-01T01:23:00.691Z,4.54
2022-11-01T01:25:28.062Z,4.55
2022-11-01T01:27:55.943Z,4.55
2022-11-01T01:30:22.473Z,4.53
2022-11-01T01:32:48.935Z,4.52
2022-11-01T01:35:15.390Z,4.50
2022-11-01T01:37:41.859Z,4.46
2022-11-01T01:40:09.045Z,4.41
2022-11-01T01:42:40.906Z,4.38
2022-11-01T01:45:28.744Z,4.37
2022-11-01T01:48:03.372Z,4.35
2022-11-01T01:50:39.744Z,4.36
2022-11-01T01:53:12.428Z,4.37
2022-11-01T01:55:48.953Z,4.36
2022-11-01T01:58:19.556Z,4.37
2022-11-01T02:00:46.246Z,4.36
2022-11-01T02:03:14.082Z,4.35
2022-11-01T02:06:02.832Z,4.33
2022-11-01T02:08:30.370Z,4.30
2022-11-01T02:11:00.920Z,4.29
2022-11-01T02:13:28.785Z,4.30
2022-11-01T02:16:07.399Z,4.30
2022-11-01T02:18:44.078Z,4.30
2022-11-01T02:21:42.581Z,4.29
2022-11-01T02:24:35.267Z,4.27
2022-11-01T02:27:11.735Z,4.26
2022-11-01T02:30:08.951Z,4.25
2022-11-01T02:33:00.091Z,4.22
2022-11-01T02:35:48.110Z,4.20
2022-11-01T02:38:24.892Z,4.19
2022-11-01T02:41:23.300Z,4.16
2022-11-01T02:44:12.810Z,4.15
2022-11-01T02:46:41.375Z,4.14
2022-11-01T02:49:12.099Z,4.14
2022-11-01T02:51:39.040Z,4.14
2022-11-01T02:54:07.239Z,4.13
2022-11-01T02:56:35.211Z,4.13
2022-11-01T02:59:02.072Z,4.13
2022-11-01T03:01:31.822Z,4.12
2022-11-01T03:04:00.437Z,4.09
2022-11-01T03:06:32.810Z,4.07
2022-11-01T03:09:11.647Z,4.08
2022-11-01T03:12:01.221Z,4.09
2022-11-01T03:14:39.125Z,4.08
2022-11-01T03:17:15.117Z,4.07
2022-11-01T03:19:48.592Z,4.08
2022-11-01T03:22:29.264Z,4.10
2022-11-01T03:25:16.518Z,4.09
2022-11-01T03:27:46.604Z,4.08
2022-11-01T03:30:14.940Z,4.10
2022-11-01T03:32:46.868Z,4.13
2022-11-01T03:35:22.627Z,4.17
2022-11-01T03:37:52.837Z,4.16
2022-11-01T03:40:23.378Z,4.15
2022-11-01T03:42:53.650Z,4.16
2022-11-01T03:45:25.093Z,4.16
2022-11-01T03:47:51.707Z,4.15
2022-11-01T03:50:21.872Z,4.12
2022-11-01T03:52:48.994Z,4.11
2022-11-01T03:55:17.592Z,4.10
2022-11-01T03:57:52.241Z,4.13
2022-11-01T04:00:27.373Z,4.16
2022-11-01T04:02:58.400Z,4.16
2022-11-01T04:05:27.323Z,4.14
2022-11-01T04:07:53.785Z,4.13
2022-11-01T04:10:22.278Z,4.11
2022-11-01T04:12:50.202Z,4.13
2022-11-01T04:15:18.383Z,4.14
2022-11-01T04:17:44.902Z,4.14
2022-11-01T04:20:11.465Z,4.15
2022-11-01T04:22:38.826Z,4.14
2022-11-01T04:25:05.571Z,4.10
2022-11-01T04:27:31.981Z,4.06
2022-11-01T04:29:58.455Z,4.04
2022-11-01T04:32:25.031Z,4.02
2022-11-01T04:34:51.546Z,3.98
2022-11-01T04:37:18.083Z,3.95
2022-11-01T04:39:44.516Z,3.91
2022-11-01T04:42:10.957Z,3.87
2022-11-01T04:44:37.503Z,3.85
2022-11-01T04:47:04.041Z,3.83
2022-11-01T04:49:30.479Z,3.81
2022-11-01T04:51:57.018Z,3.81
2022-11-01T04:54:23.570Z,3.81
2022-11-01T04:56:50.114Z,3.84
2022-11-01T04:59:16.533Z,3.85
2022-11-01T05:01:43.131Z,3.83
2022-11-01T05:04:09.730Z,3.83
2022-11-01T05:06:36.277Z,3.84
2022-11-01T05:09:03.017Z,3.85
2022-11-01T05:11:29.454Z,3.82
2022-11-01T05:13:56.094Z,3.81
2022-11-01T05:16:22.838Z,3.80
2022-11-01T05:18:49.388Z,3.78
2022-11-01T05:21:15.930Z,3.77
2022-11-01T05:23:42.480Z,3.77
2022-11-01T05:26:09.005Z,3.77
2022-11-01T05:28:35.593Z,3.76
2022-11-01T05:31:02.062Z,3.80
2022-11-01T05:33:28.641Z,3.84
2022-11-01T05:35:55.284Z,3.86
2022-11-01T05:38:21.955Z,3.89
2022-11-01T05:40:48.397Z,3.93
2022-11-01T05:43:15.101Z,3.95
2022-11-01T05:45:42.156Z,3.97
2022-11-01T05:48:08.694Z,3.98
2022-11-01T05:50:35.231Z,4.01
2022-11-01T05:53:09.026Z,4.04
2022-11-01T05:55:36.539Z,4.08
2022-11-01T05:58:03.430Z,4.14
2022-11-01T06:00:29.999Z,4.19
2022-11-01T06:03:00.624Z,4.25
2022-11-01T06:05:27.898Z,4.33
2022-11-01T06:07:54.646Z,4.40
2022-11-01T06:10:21.185Z,4.48
2022-11-01T06:12:47.730Z,4.61
2022-11-01T06:15:14.192Z,4.85
2022-11-01T06:17:40.709Z,5.13
2022-11-01T06:20:07.831Z,5.42
2022-11-01T06:22:37.150Z,5.75
2022-11-01T06:25:04.963Z,6.06
2022-11-01T06:27:32.214Z,6.37
2022-11-01T06:29:58.846Z,6.57
2022-11-01T06:32:25.288Z,6.74
2022-11-01T06:34:51.701Z,6.94
2022-11-01T06:37:18.264Z,7.14
2022-11-01T06:39:44.806Z,7.40
2022-11-01T06:42:11.245Z,7.75
2022-11-01T06:44:37.884Z,8.08
2022-11-01T06:47:04.329Z,8.37
2022-11-01T06:49:30.759Z,8.64
2022-11-01T06:51:57.606Z,8.86
2022-11-01T06:54:24.153Z,9.09
2022-11-01T06:56:50.571Z,9.49
2022-11-01T06:59:17.125Z,9.75
2022-11-01T07:01:44.630Z,10.03
2022-11-01T07:06:42.691Z,10.89
2022-11-01T07:09:09.358Z,11.38
2022-11-01T07:11:35.974Z,11.55
2022-11-01T07:14:03.027Z,11.66
2022-11-01T07:16:29.806Z,11.95
2022-11-01T07:18:56.239Z,12.22
2022-11-01T07:21:23.373Z,12.21
2022-11-01T07:23:50.019Z,12.04
2022-11-01T07:26:16.754Z,12.05
2022-11-01T07:28:43.311Z,12.35
2022-11-01T07:31:09.963Z,12.70
2022-11-01T07:33:36.550Z,13.12
2022-11-01T07:36:04.290Z,13.25
2022-11-01T07:38:31.314Z,13.31
2022-11-01T07:40:57.852Z,13.39
2022-11-01T07:43:24.401Z,13.42
2022-11-01T07:45:50.936Z,13.32
2022-11-01T07:48:19.227Z,13.34
2022-11-01T07:50:46.477Z,13.15
2022-11-01T07:53:16.244Z,12.93
2022-11-01T07:55:43.444Z,12.98
2022-11-01T07:58:10.799Z,13.18
2022-11-01T08:00:38.981Z,13.39
2022-11-01T08:03:14.372Z,13.51
2022-11-01T08:05:41.565Z,13.67
2022-11-01T08:08:08.639Z,13.91
2022-11-01T08:10:36.819Z,14.12
2022-11-01T08:13:23.018Z,14.44
2022-11-01T08:15:51.195Z,14.88
2022-11-01T08:18:19.287Z,15.19
2022-11-01T08:20:45.858Z,15.42
2022-11-01T08:23:12.599Z,15.75
2022-11-01T08:25:40.020Z,16.03
2022-11-01T08:28:12.671Z,16.18
2022-11-01T08:30:42.036Z,16.32
2022-11-01T08:33:08.743Z,16.42
2022-11-01T08:35:35.622Z,16.65
2022-11-01T08:38:02.152Z,16.92
2022-11-01T08:40:29.432Z,17.23
2022-11-01T08:42:56.446Z,17.56
2022-11-01T08:45:23.820Z,17.80
2022-11-01T08:47:58.909Z,17.87
2022-11-01T08:50:25.611Z,17.68
2022-11-01T08:52:52.092Z,17.31
2022-11-01T08:55:18.901Z,17.01
2022-11-01T08:57:45.380Z,17.03
2022-11-01T09:00:12.909Z,17.04
2022-11-01T09:02:39.964Z,16.76
2022-11-01T09:05:06.709Z,16.58
2022-11-01T09:07:37.760Z,16.54
2022-11-01T09:10:05.573Z,16.51
2022-11-01T09:12:32.125Z,16.54
2022-11-01T09:14:58.733Z,16.80
2022-11-01T09:17:25.181Z,17.06
2022-11-01T09:19:51.600Z,17.31
2022-11-01T09:22:18.227Z,17.53
2022-11-01T09:24:44.686Z,17.75
2022-11-01T09:27:11.310Z,17.74
2022-11-01T09:29:38.367Z,17.71
2022-11-01T09:32:05.343Z,17.70
2022-11-01T09:34:31.767Z,17.97
2022-11-01T09:36:58.287Z,18.25
2022-11-01T09:39:24.803Z,18.23
2022-11-01T09:41:57.099Z,18.28
2022-11-01T09:44:27.974Z,18.17
2022-11-01T09:47:23.262Z,18.11
2022-11-01T09:49:57.688Z,18.02
2022-11-01T09:52:25.455Z,17.92
2022-11-01T09:54:52.404Z,17.83
2022-11-01T09:57:39.080Z,17.98
2022-11-01T10:00:07.820Z,18.33
2022-11-01T10:02:47.157Z,18.56
2022-11-01T10:05:36.631Z,18.82
2022-11-01T10:08:27.140Z,19.07
2022-11-01T10:11:12.830Z,19.07
2022-11-01T10:13:54.551Z,18.77
2022-11-01T10:16:36.327Z,18.52
2022-11-01T10:19:09.622Z,18.28
2022-11-01T10:21:46.723Z,18.27
2022-11-01T10:24:26.360Z,18.27
2022-11-01T10:26:59.700Z,18.37
2022-11-01T10:29:49.962Z,18.42
2022-11-01T10:32:53.469Z,18.50
2022-11-01T10:35:28.837Z,18.66
2022-11-01T10:38:26.546Z,18.67
2022-11-01T10:41:06.848Z,18.61
2022-11-01T10:43:38.215Z,18.43
2022-11-01T10:46:08.774Z,18.37
2022-11-01T10:48:46.236Z,18.33
2022-11-01T10:51:17.318Z,18.34
2022-11-01T10:53:48.663Z,18.28
2022-11-01T10:56:23.006Z,18.23
2022-11-01T10:59:01.093Z,17.99
2022-11-01T11:01:31.894Z,17.58
2022-11-01T11:04:02.903Z,17.30
2022-11-01T11:06:37.490Z,17.17
2022-11-01T11:09:05.464Z,17.02
2022-11-01T11:11:39.413Z,16.92
2022-11-01T11:14:08.416Z,16.95
2022-11-01T11:16:44.148Z,16.95
2022-11-01T11:19:21.960Z,16.97
2022-11-01T11:21:51.463Z,16.92
2022-11-01T11:24:26.120Z,16.74
2022-11-01T11:26:56.148Z,16.72
2022-11-01T11:29:46.271Z,16.72
2022-11-01T11:32:23.766Z,16.68
2022-11-01T11:35:02.942Z,16.62
2022-11-01T11:37:33.335Z,16.71
2022-11-01T11:40:01.047Z,16.73
2022-11-01T11:42:27.788Z,16.71
2022-11-01T11:44:56.629Z,16.76
2022-11-01T11:47:34.691Z,16.84
2022-11-01T11:50:23.195Z,16.86
2022-11-01T11:52:56.388Z,16.77
2022-11-01T11:55:27.602Z,16.80
2022-11-01T11:57:56.081Z,16.88
2022-11-01T12:00:26.614Z,16.98
2022-11-01T12:02:53.591Z,16.99
2022-11-01T12:05:22.357Z,16.99
2022-11-01T12:07:52.081Z,17.09
2022-11-01T12:10:32.951Z,17.02
2022-11-01T12:13:05.103Z,16.94
2022-11-01T12:15:37.003Z,16.86
2022-11-01T12:18:16.263Z,16.82
2022-11-01T12:20:48.492Z,16.93
2022-11-01T12:23:22.813Z,16.87
2022-11-01T12:25:50.311Z,16.80
2022-11-01T12:28:30.733Z,16.66
2022-11-01T12:31:04.278Z,16.55
2022-11-01T12:33:34.991Z,16.50
2022-11-01T12:36:01.624Z,16.53
2022-11-01T12:38:49.604Z,16.59
2022-11-01T12:41:28.289Z,16.48
2022-11-01T12:44:16.701Z,16.33
2022-11-01T12:46:53.242Z,16.25
2022-11-01T12:49:32.562Z,16.26
2022-11-01T12:52:17.936Z,16.26
2022-11-01T12:55:16.556Z,16.21
2022-11-01T12:57:46.549Z,16.10
2022-11-01T13:00:15.690Z,16.05
2022-11-01T13:03:03.857Z,16.00
2022-11-01T13:06:11.121Z,15.98
2022-11-01T13:08:55.239Z,15.91
2022-11-01T13:11:32.258Z,15.88
2022-11-01T13:14:37.879Z,15.82
2022-11-01T13:17:38.620Z,15.73
2022-11-01T13:20:26.872Z,15.57
2022-11-01T13:23:13.559Z,15.44
2022-11-01T13:25:53.333Z,15.34
2022-11-01T13:28:42.505Z,15.20
2022-11-01T13:31:19.364Z,15.02
2022-11-01T13:34:11.121Z,14.90
2022-11-01T13:36:47.828Z,14.74
2022-11-01T13:39:20.380Z,14.63
2022-11-01T13:41:55.691Z,14.48
2022-11-01T13:44:27.004Z,14.36
2022-11-01T13:47:17.784Z,14.30
2022-11-01T13:50:09.312Z,14.19
2022-11-01T13:52:45.169Z,14.07
2022-11-01T13:55:33.966Z,13.98
2022-11-01T13:58:00.991Z,13.89
2022-11-01T14:00:39.602Z,13.85
2022-11-01T14:03:26.628Z,13.78
2022-11-01T14:06:12.823Z,13.74
2022-11-01T14:08:40.540Z,13.73
2022-11-01T14:11:10.665Z,13.72
2022-11-01T14:13:43.146Z,13.72
2022-11-01T14:16:15.596Z,13.73
2022-11-01T14:19:02.390Z,13.72
2022-11-01T14:21:41.536Z,13.68
2022-11-01T14:24:21.685Z,13.64
2022-11-01T14:26:59.589Z,13.63
2022-11-01T14:29:26.139Z,13.61
2022-11-01T14:31:54.624Z,13.59
2022-11-01T14:34:25.354Z,13.54
2022-11-01T14:36:56.598Z,13.47
2022-11-01T14:39:44.027Z,13.37
2022-11-01T14:42:15.311Z,13.27
2022-11-01T14:44:49.587Z,13.19
2022-11-01T14:47:28.013Z,13.12
2022-11-01T14:49:58.984Z,13.06
2022-11-01T14:52:38.913Z,13.01
2022-11-01T14:55:22.047Z,12.93
2022-11-01T14:58:06.228Z,12.86
2022-11-01T15:00:32.938Z,12.79
2022-11-01T15:03:01.551Z,12.71
2022-11-01T15:05:28.371Z,12.62
2022-11-01T15:07:57.910Z,12.55
2022-11-01T15:10:24.836Z,12.46
2022-11-01T15:12:56.084Z,12.35
2022-11-01T15:15:24.188Z,12.25
2022-11-01T15:17:57.197Z,12.13
2022-11-01T15:20:26.468Z,12.03
2022-11-01T15:22:55.894Z,11.93
2022-11-01T15:25:25.742Z,11.85
2022-11-01T15:27:54.037Z,11.74
2022-11-01T15:30:32.791Z,11.64
2022-11-01T15:33:22.183Z,11.53
2022-11-01T15:35:57.245Z,11.41
2022-11-01T15:38:23.852Z,11.31
2022-11-01T15:40:50.473Z,11.23
2022-11-01T15:43:25.539Z,11.14
2022-11-01T15:45:56.278Z,11.07
2022-11-01T15:48:27.384Z,10.98
2022-11-01T15:50:56.230Z,10.88
2022-11-01T15:53:26.255Z,10.79
2022-11-01T15:56:00.463Z,10.74
2022-11-01T15:58:32.122Z,10.68
2022-11-01T16:01:04.303Z,10.61
2022-11-01T16:03:37.324Z,10.54
2022-11-01T16:06:21.305Z,10.47
2022-11-01T16:08:55.467Z,10.42
2022-11-01T16:11:25.311Z,10.37
2022-11-01T16:13:59.334Z,10.35
2022-11-01T16:16:26.026Z,10.29
2022-11-01T16:18:52.775Z,10.23
2022-11-01T16:21:19.161Z,10.19
2022-11-01T16:24:11.696Z,10.14
2022-11-01T16:27:25.512Z,10.09
2022-11-01T16:29:52.235Z,10.05
2022-11-01T16:32:20.130Z,10.04
2022-11-01T16:34:47.104Z,10.02
2022-11-01T16:37:24.473Z,9.96
2022-11-01T16:39:51.942Z,9.92
2022-11-01T16:42:19.805Z,9.90
2022-11-01T16:44:50.164Z,9.86
2022-11-01T16:47:16.984Z,9.79
2022-11-01T16:49:53.862Z,9.75
2022-11-01T16:52:21.341Z,9.71
2022-11-01T16:54:49.575Z,9.69
2022-11-01T16:57:22.316Z,9.65
2022-11-01T16:59:49.121Z,9.58
2022-11-01T17:02:19.706Z,9.52
2022-11-01T17:04:49.736Z,9.43
2022-11-01T17:07:16.181Z,9.32
2022-11-01T17:09:42.887Z,9.24
2022-11-01T17:12:09.658Z,9.17
2022-11-01T17:14:36.193Z,9.10
2022-11-01T17:17:05.481Z,9.06
2022-11-01T17:19:33.644Z,9.02
2022-11-01T17:22:03.354Z,9.00
2022-11-01T17:24:30.819Z,8.97
2022-11-01T17:26:59.912Z,8.89
2022-11-01T17:29:26.557Z,8.81
2022-11-01T17:31:54.130Z,8.79
2022-11-01T17:34:20.686Z,8.79
2022-11-01T17:36:49.390Z,8.74
2022-11-01T17:39:16.194Z,8.66
2022-11-01T17:41:42.937Z,8.58
2022-11-01T17:44:12.651Z,8.50
2022-11-01T17:46:39.193Z,8.42
2022-11-01T17:49:05.935Z,8.36
2022-11-01T17:51:32.945Z,8.30
2022-11-01T17:53:59.424Z,8.26
2022-11-01T17:56:25.963Z,8.21
2022-11-01T17:58:52.509Z,8.15
2022-11-01T18:01:20.568Z,8.10
2022-11-01T18:03:48.249Z,8.04
2022-11-01T18:06:14.887Z,7.98
2022-11-01T18:08:47.257Z,7.93
2022-11-01T18:11:39.808Z,7.87
2022-11-01T18:14:15.156Z,7.81
2022-11-01T18:17:00.380Z,7.76
2022-11-01T18:20:04.865Z,7.69
2022-11-01T18:22:49.430Z,7.69
2022-11-01T18:25:42.561Z,7.72
2022-11-01T18:28:19.476Z,7.74
2022-11-01T18:30:52.913Z,7.75
2022-11-01T18:33:19.417Z,7.75
2022-11-01T18:35:54.189Z,7.70
2022-11-01T18:38:31.100Z,7.65
2022-11-01T18:41:02.591Z,7.61
2022-11-01T18:43:33.752Z,7.57
2022-11-01T18:48:59.978Z,7.47
2022-11-01T18:51:29.504Z,7.42
2022-11-01T18:54:08.253Z,7.38
2022-11-01T18:56:39.495Z,7.31
2022-11-01T18:59:33.861Z,7.22
2022-11-01T19:02:13.189Z,7.15
2022-11-01T19:04:41.646Z,7.12
2022-11-01T19:07:22.659Z,7.06
2022-11-01T19:09:55.533Z,6.99
2022-11-01T19:12:46.362Z,6.94
2022-11-01T19:15:25.138Z,6.88
2022-11-01T19:17:57.575Z,6.86
2022-11-01T19:20:28.016Z,6.87
2022-11-01T19:23:11.467Z,6.85
2022-11-01T19:25:38.173Z,6.82
2022-11-01T19:28:17.303Z,6.80
2022-11-01T19:30:49.294Z,6.77
2022-11-01T19:33:34.615Z,6.73
2022-11-01T19:36:05.663Z,6.69
2022-11-01T19:38:32.340Z,6.64
2022-11-01T19:40:59.226Z,6.60
2022-11-01T19:43:27.578Z,6.57
2022-11-01T19:45:56.588Z,6.53
2022-11-01T19:48:27.233Z,6.51
2022-11-01T19:50:55.201Z,6.49
2022-11-01T19:53:33.928Z,6.47
2022-11-01T19:56:03.456Z,6.44
2022-11-01T19:58:50.318Z,6.40
2022-11-01T20:01:17.463Z,6.37
2022-11-01T20:03:56.264Z,6.34
2022-11-01T20:06:29.228Z,6.32
2022-11-01T20:09:01.360Z,6.29
2022-11-01T20:11:27.907Z,6.26
2022-11-01T20:13:54.611Z,6.21
2022-11-01T20:16:21.282Z,6.19
2022-11-01T20:18:47.927Z,6.18
2022-11-01T20:21:14.672Z,6.19
2022-11-01T20:23:41.442Z,6.19
2022-11-01T20:26:08.150Z,6.19
2022-11-01T20:28:34.792Z,6.19
2022-11-01T20:31:01.343Z,6.17
2022-11-01T20:33:27.871Z,6.15
2022-11-01T20:35:54.405Z,6.13
2022-11-01T20:40:52.399Z,6.11
2022-11-01T20:43:19.034Z,6.10
2022-11-01T20:45:45.677Z,6.09
2022-11-01T20:48:12.191Z,6.06
2022-11-01T20:50:39.165Z,6.02
2022-11-01T20:53:06.109Z,6.00
2022-11-01T20:55:32.959Z,5.96
2022-11-01T20:57:59.603Z,5.91
2022-11-01T21:00:26.682Z,5.89
2022-11-01T21:02:55.251Z,5.88
2022-11-01T21:05:23.132Z,5.87
2022-11-01T21:07:53.678Z,5.86
2022-11-01T21:10:34.252Z,5.85
2022-11-01T21:13:03.413Z,5.84
2022-11-01T21:15:40.154Z,5.84
2022-11-01T21:18:09.834Z,5.82
2022-11-01T21:20:39.348Z,5.81
2022-11-01T21:23:21.148Z,5.80
2022-11-01T21:25:53.324Z,5.78
2022-11-01T21:28:35.365Z,5.77
2022-11-01T21:31:29.703Z,5.78
2022-11-01T21:34:00.228Z,5.79
2022-11-01T21:36:28.509Z,5.80
2022-11-01T21:38:58.843Z,5.81
2022-11-01T21:41:38.590Z,5.82
2022-11-01T21:44:17.682Z,5.86
2022-11-01T21:46:50.951Z,5.88
2022-11-01T21:49:25.061Z,5.89
2022-11-01T21:51:53.148Z,5.88
2022-11-01T21:54:20.515Z,5.86
2022-11-01T21:56:47.631Z,5.85
2022-11-01T21:59:14.581Z,5.83
2022-11-01T22:01:44.267Z,5.82
2022-11-01T22:04:11.032Z,5.81
2022-11-01T22:06:37.498Z,5.81
2022-11-01T22:09:04.686Z,5.80
2022-11-01T22:11:32.712Z,5.79
2022-11-01T22:13:59.499Z,5.79
2022-11-01T22:16:26.213Z,5.79
2022-11-01T22:18:52.757Z,5.78
2022-11-01T22:21:19.190Z,5.77
2022-11-01T22:23:45.651Z,5.76
2022-11-01T22:26:12.991Z,5.75
2022-11-01T22:28:39.531Z,5.72
2022-11-01T22:31:06.587Z,5.69
2022-11-01T22:33:34.459Z,5.65
2022-11-01T22:36:01.918Z,5.60
2022-11-01T22:38:38.315Z,5.56
2022-11-01T22:41:17.062Z,5.51
2022-11-01T22:43:47.257Z,5.46
2022-11-01T22:46:40.275Z,5.44
2022-11-01T22:49:30.306Z,5.41
2022-11-01T22:52:21.834Z,5.38
2022-11-01T22:54:52.157Z,5.35
2022-11-01T22:57:22.147Z,5.34
2022-11-01T22:59:55.493Z,5.33
2022-11-01T23:02:30.746Z,5.34
2022-11-01T23:05:06.453Z,5.36
2022-11-01T23:07:40.193Z,5.42
2022-11-01T23:10:22.391Z,5.46
2022-11-01T23:12:51.234Z,5.51
2022-11-01T23:15:30.221Z,5.52
2022-11-01T23:18:15.934Z,5.53
2022-11-01T23:20:43.466Z,5.54
2022-11-01T23:23:20.583Z,5.54
2022-11-01T23:25:47.300Z,5.55
2022-11-01T23:28:13.838Z,5.55
2022-11-01T23:30:42.919Z,5.56
2022-11-01T23:33:17.468Z,5.58
2022-11-01T23:35:51.930Z,5.60
2022-11-01T23:38:26.313Z,5.61
2022-11-01T23:40:54.214Z,5.62
2022-11-01T23:43:32.206Z,5.64
2022-11-01T23:45:58.740Z,5.67
2022-11-01T23:48:25.218Z,5.72
2022-11-01T23:50:53.347Z,5.78
2022-11-01T23:53:25.932Z,5.84
2022-11-01T23:55:54.427Z,5.89
2022-11-01T23:58:26.515Z,5.94
